sensor_id;sensor_type;location;lat;lon;timestamp;temperature;humidity
47616;DHT22;69146;52.266;7.000;2023-09-30T00:00:46;12.10;99.90
47616;DHT22;69146;52.266;7.000;2023-09-30T00:03:31;12.10;99.90
47616;DHT22;69146;52.266;7.000;2023-09-30T00:06:16;12.20;99.90
47616;DHT22;69146;52.266;7.000;2023-09-30T00:09:00;12.20;99.90
47616;DHT22;69146;52.266;7.000;2023-09-30T00:11:44;12.10;99.90
47616;DHT22;69146;52.266;7.000;2023-09-30T00:14:29;12.10;99.90
47616;DHT22;69146;52.266;7.000;2023-09-30T00:17:15;12.20;99.90
47616;DHT22;69146;52.266;7.000;2023-09-30T00:19:59;12.20;99.90
47616;DHT22;69146;52.266;7.000;2023-09-30T00:22:44;12.20;99.90
47616;DHT22;69146;52.266;7.000;2023-09-30T00:25:29;12.20;99.90
47616;DHT22;69146;52.266;7.000;2023-09-30T00:28:13;12.20;99.90
47616;DHT22;69146;52.266;7.000;2023-09-30T00:30:58;12.30;99.90
47616;DHT22;69146;52.266;7.000;2023-09-30T00:33:44;12.30;99.90
47616;DHT22;69146;52.266;7.000;2023-09-30T00:36:29;12.30;99.90
47616;DHT22;69146;52.266;7.000;2023-09-30T00:39:13;12.30;99.90
47616;DHT22;69146;52.266;7.000;2023-09-30T00:41:58;12.30;99.90
47616;DHT22;69146;52.266;7.000;2023-09-30T00:44:42;12.20;99.90
47616;DHT22;69146;52.266;7.000;2023-09-30T00:47:27;12.20;99.90
47616;DHT22;69146;52.266;7.000;2023-09-30T00:50:13;12.20;99.90
47616;DHT22;69146;52.266;7.000;2023-09-30T00:52:57;12.20;99.90
47616;DHT22;69146;52.266;7.000;2023-09-30T00:55:42;12.20;99.90
47616;DHT22;69146;52.266;7.000;2023-09-30T00:58:26;12.20;99.90
47616;DHT22;69146;52.266;7.000;2023-09-30T01:01:13;12.20;99.90
47616;DHT22;69146;52.266;7.000;2023-09-30T01:03:57;12.20;99.90
47616;DHT22;69146;52.266;7.000;2023-09-30T01:06:44;12.30;99.90
47616;DHT22;69146;52.266;7.000;2023-09-30T01:09:28;12.30;99.90
47616;DHT22;69146;52.266;7.000;2023-09-30T01:12:13;12.30;99.90
47616;DHT22;69146;52.266;7.000;2023-09-30T01:14:57;12.30;99.90
47616;DHT22;69146;52.266;7.000;2023-09-30T01:17:41;12.20;99.90
47616;DHT22;69146;52.266;7.000;2023-09-30T01:20:26;12.20;99.90
47616;DHT22;69146;52.266;7.000;2023-09-30T01:23:12;12.20;99.90
47616;DHT22;69146;52.266;7.000;2023-09-30T01:25:57;12.20;99.90
47616;DHT22;69146;52.266;7.000;2023-09-30T01:28:44;12.20;99.90
47616;DHT22;69146;52.266;7.000;2023-09-30T01:31:30;12.20;99.90
47616;DHT22;69146;52.266;7.000;2023-09-30T01:34:15;12.20;99.90
47616;DHT22;69146;52.266;7.000;2023-09-30T01:36:59;12.20;99.90
47616;DHT22;69146;52.266;7.000;2023-09-30T01:39:45;12.20;99.90
47616;DHT22;69146;52.266;7.000;2023-09-30T01:42:30;12.20;99.90
47616;DHT22;69146;52.266;7.000;2023-09-30T01:45:14;12.20;99.90
47616;DHT22;69146;52.266;7.000;2023-09-30T01:47:59;12.20;99.90
47616;DHT22;69146;52.266;7.000;2023-09-30T01:50:43;12.20;99.90
47616;DHT22;69146;52.266;7.000;2023-09-30T01:53:27;12.20;99.90
47616;DHT22;69146;52.266;7.000;2023-09-30T01:56:13;12.20;99.90
47616;DHT22;69146;52.266;7.000;2023-09-30T01:58:58;12.20;99.90
47616;DHT22;69146;52.266;7.000;2023-09-30T02:01:43;12.20;99.90
47616;DHT22;69146;52.266;7.000;2023-09-30T02:04:27;12.20;99.90
47616;DHT22;69146;52.266;7.000;2023-09-30T02:07:12;12.20;99.90
47616;DHT22;69146;52.266;7.000;2023-09-30T02:09:56;12.20;99.90
47616;DHT22;69146;52.266;7.000;2023-09-30T02:12:42;12.10;99.90
47616;DHT22;69146;52.266;7.000;2023-09-30T02:15:26;12.10;99.90
47616;DHT22;69146;52.266;7.000;2023-09-30T02:18:11;12.10;99.90
47616;DHT22;69146;52.266;7.000;2023-09-30T02:20:55;12.10;99.90
47616;DHT22;69146;52.266;7.000;2023-09-30T02:23:40;12.00;99.90
47616;DHT22;69146;52.266;7.000;2023-09-30T02:26:24;12.00;99.90
47616;DHT22;69146;52.266;7.000;2023-09-30T02:29:11;12.00;99.90
47616;DHT22;69146;52.266;7.000;2023-09-30T02:31:55;11.90;99.90
47616;DHT22;69146;52.266;7.000;2023-09-30T02:34:39;11.80;99.90
47616;DHT22;69146;52.266;7.000;2023-09-30T02:37:24;11.80;99.90
47616;DHT22;69146;52.266;7.000;2023-09-30T02:40:09;11.80;99.90
47616;DHT22;69146;52.266;7.000;2023-09-30T02:42:55;11.80;99.90
47616;DHT22;69146;52.266;7.000;2023-09-30T02:45:41;11.80;99.90
47616;DHT22;69146;52.266;7.000;2023-09-30T02:48:26;11.70;99.90
47616;DHT22;69146;52.266;7.000;2023-09-30T02:51:11;11.70;99.90
47616;DHT22;69146;52.266;7.000;2023-09-30T02:53:55;11.80;99.90
47616;DHT22;69146;52.266;7.000;2023-09-30T02:56:40;11.90;99.90
47616;DHT22;69146;52.266;7.000;2023-09-30T02:59:24;11.90;99.90
47616;DHT22;69146;52.266;7.000;2023-09-30T03:02:10;11.80;99.90
47616;DHT22;69146;52.266;7.000;2023-09-30T03:04:55;11.80;99.90
47616;DHT22;69146;52.266;7.000;2023-09-30T03:07:42;11.80;99.90
47616;DHT22;69146;52.266;7.000;2023-09-30T03:10:26;11.80;99.90
47616;DHT22;69146;52.266;7.000;2023-09-30T03:13:11;11.80;99.90
47616;DHT22;69146;52.266;7.000;2023-09-30T03:15:55;11.80;99.90
47616;DHT22;69146;52.266;7.000;2023-09-30T03:18:42;11.80;99.90
47616;DHT22;69146;52.266;7.000;2023-09-30T03:21:28;11.80;99.90
47616;DHT22;69146;52.266;7.000;2023-09-30T03:24:12;11.80;99.90
47616;DHT22;69146;52.266;7.000;2023-09-30T03:26:57;11.80;99.90
47616;DHT22;69146;52.266;7.000;2023-09-30T03:29:42;11.70;99.90
47616;DHT22;69146;52.266;7.000;2023-09-30T03:32:27;11.70;99.90
47616;DHT22;69146;52.266;7.000;2023-09-30T03:35:13;11.70;99.90
47616;DHT22;69146;52.266;7.000;2023-09-30T03:38:01;11.60;99.90
47616;DHT22;69146;52.266;7.000;2023-09-30T03:40:46;11.50;99.90
47616;DHT22;69146;52.266;7.000;2023-09-30T03:43:31;11.50;99.90
47616;DHT22;69146;52.266;7.000;2023-09-30T03:46:18;11.50;99.90
47616;DHT22;69146;52.266;7.000;2023-09-30T03:49:03;11.50;99.90
47616;DHT22;69146;52.266;7.000;2023-09-30T03:51:48;11.50;99.90
47616;DHT22;69146;52.266;7.000;2023-09-30T03:54:35;11.50;99.90
47616;DHT22;69146;52.266;7.000;2023-09-30T03:57:19;11.40;99.90
47616;DHT22;69146;52.266;7.000;2023-09-30T04:00:04;11.40;99.90
47616;DHT22;69146;52.266;7.000;2023-09-30T04:02:55;11.40;99.90
47616;DHT22;69146;52.266;7.000;2023-09-30T04:05:42;11.40;99.90
47616;DHT22;69146;52.266;7.000;2023-09-30T04:08:28;11.40;99.90
47616;DHT22;69146;52.266;7.000;2023-09-30T04:11:13;11.40;99.90
47616;DHT22;69146;52.266;7.000;2023-09-30T04:14:02;11.30;99.90
47616;DHT22;69146;52.266;7.000;2023-09-30T04:16:46;11.30;99.90
47616;DHT22;69146;52.266;7.000;2023-09-30T04:19:31;11.20;99.90
47616;DHT22;69146;52.266;7.000;2023-09-30T04:22:16;11.20;99.90
47616;DHT22;69146;52.266;7.000;2023-09-30T04:25:02;11.20;99.90
47616;DHT22;69146;52.266;7.000;2023-09-30T04:27:50;11.20;99.90
47616;DHT22;69146;52.266;7.000;2023-09-30T04:30:35;11.20;99.90
47616;DHT22;69146;52.266;7.000;2023-09-30T04:33:20;11.20;99.90
47616;DHT22;69146;52.266;7.000;2023-09-30T04:36:04;11.20;99.90
47616;DHT22;69146;52.266;7.000;2023-09-30T04:38:52;11.30;99.90
47616;DHT22;69146;52.266;7.000;2023-09-30T04:41:38;11.30;99.90
47616;DHT22;69146;52.266;7.000;2023-09-30T04:44:26;11.20;99.90
47616;DHT22;69146;52.266;7.000;2023-09-30T04:47:14;11.30;99.90
47616;DHT22;69146;52.266;7.000;2023-09-30T04:49:58;11.30;99.90
47616;DHT22;69146;52.266;7.000;2023-09-30T04:52:43;11.30;99.90
47616;DHT22;69146;52.266;7.000;2023-09-30T04:55:28;11.40;99.90
47616;DHT22;69146;52.266;7.000;2023-09-30T04:58:14;11.40;99.90
47616;DHT22;69146;52.266;7.000;2023-09-30T05:00:58;11.30;99.90
47616;DHT22;69146;52.266;7.000;2023-09-30T05:03:42;11.30;99.90
47616;DHT22;69146;52.266;7.000;2023-09-30T05:06:28;11.30;99.90
47616;DHT22;69146;52.266;7.000;2023-09-30T05:09:12;11.30;99.90
47616;DHT22;69146;52.266;7.000;2023-09-30T05:11:57;11.30;99.90
47616;DHT22;69146;52.266;7.000;2023-09-30T05:14:43;11.30;99.90
47616;DHT22;69146;52.266;7.000;2023-09-30T05:17:27;11.30;99.90
47616;DHT22;69146;52.266;7.000;2023-09-30T05:20:12;11.20;99.90
47616;DHT22;69146;52.266;7.000;2023-09-30T05:22:57;11.20;99.90
47616;DHT22;69146;52.266;7.000;2023-09-30T05:25:41;11.10;99.90
47616;DHT22;69146;52.266;7.000;2023-09-30T05:28:26;11.10;99.90
47616;DHT22;69146;52.266;7.000;2023-09-30T05:31:12;11.10;99.90
47616;DHT22;69146;52.266;7.000;2023-09-30T05:33:56;11.10;99.90
47616;DHT22;69146;52.266;7.000;2023-09-30T05:36:41;11.10;99.90
47616;DHT22;69146;52.266;7.000;2023-09-30T05:39:26;11.10;99.90
47616;DHT22;69146;52.266;7.000;2023-09-30T05:42:12;11.10;99.90
47616;DHT22;69146;52.266;7.000;2023-09-30T05:44:57;11.10;99.90
47616;DHT22;69146;52.266;7.000;2023-09-30T05:47:43;11.10;99.90
47616;DHT22;69146;52.266;7.000;2023-09-30T05:50:29;11.10;99.90
47616;DHT22;69146;52.266;7.000;2023-09-30T05:53:13;11.20;99.90
47616;DHT22;69146;52.266;7.000;2023-09-30T05:55:58;11.20;99.90
47616;DHT22;69146;52.266;7.000;2023-09-30T05:58:43;11.30;99.90
47616;DHT22;69146;52.266;7.000;2023-09-30T06:01:28;11.40;99.90
47616;DHT22;69146;52.266;7.000;2023-09-30T06:04:14;11.40;99.90
47616;DHT22;69146;52.266;7.000;2023-09-30T06:06:59;11.50;99.90
47616;DHT22;69146;52.266;7.000;2023-09-30T06:09:43;11.50;99.90
47616;DHT22;69146;52.266;7.000;2023-09-30T06:12:28;11.50;99.90
47616;DHT22;69146;52.266;7.000;2023-09-30T06:15:13;11.60;99.90
47616;DHT22;69146;52.266;7.000;2023-09-30T06:17:57;11.60;99.90
47616;DHT22;69146;52.266;7.000;2023-09-30T06:20:45;11.60;99.90
47616;DHT22;69146;52.266;7.000;2023-09-30T06:23:29;11.60;99.90
47616;DHT22;69146;52.266;7.000;2023-09-30T06:26:14;11.70;99.90
47616;DHT22;69146;52.266;7.000;2023-09-30T06:29:00;11.60;99.90
47616;DHT22;69146;52.266;7.000;2023-09-30T06:31:45;11.60;99.90
47616;DHT22;69146;52.266;7.000;2023-09-30T06:34:30;11.70;99.90
47616;DHT22;69146;52.266;7.000;2023-09-30T06:37:16;11.70;99.90
47616;DHT22;69146;52.266;7.000;2023-09-30T06:40:02;11.80;99.90
47616;DHT22;69146;52.266;7.000;2023-09-30T06:42:49;11.80;99.90
47616;DHT22;69146;52.266;7.000;2023-09-30T06:45:33;11.80;99.90
47616;DHT22;69146;52.266;7.000;2023-09-30T06:48:18;11.90;99.90
47616;DHT22;69146;52.266;7.000;2023-09-30T06:51:02;12.00;99.90
47616;DHT22;69146;52.266;7.000;2023-09-30T06:53:48;12.00;99.90
47616;DHT22;69146;52.266;7.000;2023-09-30T06:56:32;12.20;99.90
47616;DHT22;69146;52.266;7.000;2023-09-30T06:59:17;12.20;99.90
47616;DHT22;69146;52.266;7.000;2023-09-30T07:02:01;12.20;99.90
47616;DHT22;69146;52.266;7.000;2023-09-30T07:04:46;12.30;99.90
47616;DHT22;69146;52.266;7.000;2023-09-30T07:07:30;12.40;99.90
47616;DHT22;69146;52.266;7.000;2023-09-30T07:10:16;12.50;99.90
47616;DHT22;69146;52.266;7.000;2023-09-30T07:13:01;12.60;99.90
47616;DHT22;69146;52.266;7.000;2023-09-30T07:15:46;12.70;99.90
47616;DHT22;69146;52.266;7.000;2023-09-30T07:18:31;12.80;99.90
47616;DHT22;69146;52.266;7.000;2023-09-30T07:21:15;12.90;99.90
47616;DHT22;69146;52.266;7.000;2023-09-30T07:24:00;13.10;99.90
47616;DHT22;69146;52.266;7.000;2023-09-30T07:26:45;13.20;99.90
47616;DHT22;69146;52.266;7.000;2023-09-30T07:29:30;13.30;99.90
47616;DHT22;69146;52.266;7.000;2023-09-30T07:32:14;13.50;99.90
47616;DHT22;69146;52.266;7.000;2023-09-30T07:34:59;13.60;99.90
47616;DHT22;69146;52.266;7.000;2023-09-30T07:37:44;13.70;99.90
47616;DHT22;69146;52.266;7.000;2023-09-30T07:40:28;13.80;99.90
47616;DHT22;69146;52.266;7.000;2023-09-30T07:43:14;14.00;99.90
47616;DHT22;69146;52.266;7.000;2023-09-30T07:45:58;14.00;99.90
47616;DHT22;69146;52.266;7.000;2023-09-30T07:48:43;14.10;99.90
47616;DHT22;69146;52.266;7.000;2023-09-30T07:51:27;14.30;99.90
47616;DHT22;69146;52.266;7.000;2023-09-30T07:54:12;14.50;99.90
47616;DHT22;69146;52.266;7.000;2023-09-30T07:56:56;14.60;99.90
47616;DHT22;69146;52.266;7.000;2023-09-30T07:59:43;14.70;99.90
47616;DHT22;69146;52.266;7.000;2023-09-30T08:02:27;14.80;99.90
47616;DHT22;69146;52.266;7.000;2023-09-30T08:05:16;14.90;99.90
47616;DHT22;69146;52.266;7.000;2023-09-30T08:08:01;15.20;99.90
47616;DHT22;69146;52.266;7.000;2023-09-30T08:10:46;15.30;99.90
47616;DHT22;69146;52.266;7.000;2023-09-30T08:13:31;15.40;99.90
47616;DHT22;69146;52.266;7.000;2023-09-30T08:16:18;15.50;99.90
47616;DHT22;69146;52.266;7.000;2023-09-30T08:19:03;15.60;99.90
47616;DHT22;69146;52.266;7.000;2023-09-30T08:21:48;15.80;99.90
47616;DHT22;69146;52.266;7.000;2023-09-30T08:24:32;15.90;99.90
47616;DHT22;69146;52.266;7.000;2023-09-30T08:27:17;15.90;99.90
47616;DHT22;69146;52.266;7.000;2023-09-30T08:30:02;16.10;99.90
47616;DHT22;69146;52.266;7.000;2023-09-30T08:32:50;16.20;99.90
47616;DHT22;69146;52.266;7.000;2023-09-30T08:35:35;16.20;99.90
47616;DHT22;69146;52.266;7.000;2023-09-30T08:38:19;16.40;99.90
47616;DHT22;69146;52.266;7.000;2023-09-30T08:41:04;16.60;99.90
47616;DHT22;69146;52.266;7.000;2023-09-30T08:43:49;16.70;99.90
47616;DHT22;69146;52.266;7.000;2023-09-30T08:46:34;16.80;99.90
47616;DHT22;69146;52.266;7.000;2023-09-30T08:49:20;16.80;99.90
47616;DHT22;69146;52.266;7.000;2023-09-30T08:52:05;16.90;99.90
47616;DHT22;69146;52.266;7.000;2023-09-30T08:54:50;16.90;99.90
47616;DHT22;69146;52.266;7.000;2023-09-30T08:57:34;17.10;99.90
47616;DHT22;69146;52.266;7.000;2023-09-30T09:00:21;17.30;99.90
47616;DHT22;69146;52.266;7.000;2023-09-30T09:03:05;17.40;99.90
47616;DHT22;69146;52.266;7.000;2023-09-30T09:05:54;17.50;99.90
47616;DHT22;69146;52.266;7.000;2023-09-30T09:08:40;17.60;99.90
47616;DHT22;69146;52.266;7.000;2023-09-30T09:11:25;17.80;99.90
47616;DHT22;69146;52.266;7.000;2023-09-30T09:14:09;17.90;99.90
47616;DHT22;69146;52.266;7.000;2023-09-30T09:16:54;18.00;99.90
47616;DHT22;69146;52.266;7.000;2023-09-30T09:19:39;18.00;99.90
47616;DHT22;69146;52.266;7.000;2023-09-30T09:22:25;18.10;99.90
47616;DHT22;69146;52.266;7.000;2023-09-30T09:25:21;18.10;99.90
47616;DHT22;69146;52.266;7.000;2023-09-30T09:28:08;18.20;99.90
47616;DHT22;69146;52.266;7.000;2023-09-30T09:30:53;18.20;99.90
47616;DHT22;69146;52.266;7.000;2023-09-30T09:33:37;18.30;99.90
47616;DHT22;69146;52.266;7.000;2023-09-30T09:36:23;18.30;99.90
47616;DHT22;69146;52.266;7.000;2023-09-30T09:39:30;18.30;99.90
47616;DHT22;69146;52.266;7.000;2023-09-30T09:42:23;18.40;99.90
47616;DHT22;69146;52.266;7.000;2023-09-30T09:45:08;18.50;99.90
47616;DHT22;69146;52.266;7.000;2023-09-30T09:47:53;18.70;99.90
47616;DHT22;69146;52.266;7.000;2023-09-30T09:50:38;18.80;99.90
47616;DHT22;69146;52.266;7.000;2023-09-30T09:53:22;19.00;99.90
47616;DHT22;69146;52.266;7.000;2023-09-30T09:56:08;19.10;99.90
47616;DHT22;69146;52.266;7.000;2023-09-30T09:58:56;19.10;99.90
47616;DHT22;69146;52.266;7.000;2023-09-30T10:01:40;19.20;99.90
47616;DHT22;69146;52.266;7.000;2023-09-30T10:04:25;19.30;99.90
47616;DHT22;69146;52.266;7.000;2023-09-30T10:07:10;19.30;99.90
47616;DHT22;69146;52.266;7.000;2023-09-30T10:09:58;19.20;99.90
47616;DHT22;69146;52.266;7.000;2023-09-30T10:12:46;19.30;99.90
47616;DHT22;69146;52.266;7.000;2023-09-30T10:15:34;19.50;99.90
47616;DHT22;69146;52.266;7.000;2023-09-30T10:18:20;19.70;99.90
47616;DHT22;69146;52.266;7.000;2023-09-30T10:21:07;19.70;99.90
47616;DHT22;69146;52.266;7.000;2023-09-30T10:23:51;19.80;99.90
47616;DHT22;69146;52.266;7.000;2023-09-30T10:29:57;20.00;99.90
47616;DHT22;69146;52.266;7.000;2023-09-30T10:35:47;19.70;99.90
47616;DHT22;69146;52.266;7.000;2023-09-30T10:38:39;19.40;99.90
47616;DHT22;69146;52.266;7.000;2023-09-30T10:44:33;19.20;99.90
47616;DHT22;69146;52.266;7.000;2023-09-30T10:47:37;19.20;99.90
47616;DHT22;69146;52.266;7.000;2023-09-30T10:53:25;19.10;99.90
47616;DHT22;69146;52.266;7.000;2023-09-30T10:56:11;19.10;99.90
47616;DHT22;69146;52.266;7.000;2023-09-30T10:58:56;19.10;99.90
47616;DHT22;69146;52.266;7.000;2023-09-30T11:01:42;19.20;99.90
47616;DHT22;69146;52.266;7.000;2023-09-30T11:04:28;19.30;99.90
47616;DHT22;69146;52.266;7.000;2023-09-30T11:07:17;19.40;99.90
47616;DHT22;69146;52.266;7.000;2023-09-30T11:10:04;19.20;99.90
47616;DHT22;69146;52.266;7.000;2023-09-30T11:12:55;19.20;99.90
47616;DHT22;69146;52.266;7.000;2023-09-30T11:15:40;19.40;99.90
47616;DHT22;69146;52.266;7.000;2023-09-30T11:18:24;19.80;99.90
47616;DHT22;69146;52.266;7.000;2023-09-30T11:21:10;20.10;99.90
47616;DHT22;69146;52.266;7.000;2023-09-30T11:23:56;20.30;99.90
47616;DHT22;69146;52.266;7.000;2023-09-30T11:26:43;20.30;99.90
47616;DHT22;69146;52.266;7.000;2023-09-30T11:29:27;20.30;99.90
47616;DHT22;69146;52.266;7.000;2023-09-30T11:32:12;20.20;99.90
47616;DHT22;69146;52.266;7.000;2023-09-30T11:35:08;20.20;99.90
47616;DHT22;69146;52.266;7.000;2023-09-30T11:37:54;20.20;99.90
47616;DHT22;69146;52.266;7.000;2023-09-30T11:40:39;20.20;99.90
47616;DHT22;69146;52.266;7.000;2023-09-30T11:43:23;20.00;99.90
47616;DHT22;69146;52.266;7.000;2023-09-30T11:46:09;19.90;99.90
47616;DHT22;69146;52.266;7.000;2023-09-30T11:48:58;19.90;99.90
47616;DHT22;69146;52.266;7.000;2023-09-30T11:51:46;20.10;99.90
47616;DHT22;69146;52.266;7.000;2023-09-30T11:54:33;20.20;99.90
47616;DHT22;69146;52.266;7.000;2023-09-30T11:57:18;20.30;99.90
47616;DHT22;69146;52.266;7.000;2023-09-30T12:00:03;20.30;99.90
47616;DHT22;69146;52.266;7.000;2023-09-30T12:02:57;20.30;99.90
47616;DHT22;69146;52.266;7.000;2023-09-30T12:05:42;20.40;99.90
47616;DHT22;69146;52.266;7.000;2023-09-30T12:08:30;20.60;99.90
47616;DHT22;69146;52.266;7.000;2023-09-30T12:11:17;20.60;99.90
47616;DHT22;69146;52.266;7.000;2023-09-30T12:14:02;20.60;99.90
47616;DHT22;69146;52.266;7.000;2023-09-30T12:16:46;20.70;99.90
47616;DHT22;69146;52.266;7.000;2023-09-30T12:19:32;20.80;99.90
47616;DHT22;69146;52.266;7.000;2023-09-30T12:22:16;20.90;99.90
47616;DHT22;69146;52.266;7.000;2023-09-30T12:25:01;21.00;99.90
47616;DHT22;69146;52.266;7.000;2023-09-30T12:27:47;21.00;98.90
47616;DHT22;69146;52.266;7.000;2023-09-30T12:30:31;21.00;98.80
47616;DHT22;69146;52.266;7.000;2023-09-30T12:33:16;20.90;98.80
47616;DHT22;69146;52.266;7.000;2023-09-30T12:36:00;20.90;98.80
47616;DHT22;69146;52.266;7.000;2023-09-30T12:38:44;20.90;98.80
47616;DHT22;69146;52.266;7.000;2023-09-30T12:41:29;21.00;98.80
47616;DHT22;69146;52.266;7.000;2023-09-30T12:44:18;21.00;98.70
47616;DHT22;69146;52.266;7.000;2023-09-30T12:47:03;21.20;99.80
47616;DHT22;69146;52.266;7.000;2023-09-30T12:49:49;21.10;99.00
47616;DHT22;69146;52.266;7.000;2023-09-30T12:52:33;21.10;99.60
47616;DHT22;69146;52.266;7.000;2023-09-30T12:55:18;21.20;99.10
47616;DHT22;69146;52.266;7.000;2023-09-30T12:58:03;21.20;98.70
47616;DHT22;69146;52.266;7.000;2023-09-30T13:00:49;21.20;98.70
47616;DHT22;69146;52.266;7.000;2023-09-30T13:03:34;21.20;98.80
47616;DHT22;69146;52.266;7.000;2023-09-30T13:06:19;21.20;98.80
47616;DHT22;69146;52.266;7.000;2023-09-30T13:09:04;21.30;98.70
47616;DHT22;69146;52.266;7.000;2023-09-30T13:11:53;21.50;98.30
47616;DHT22;69146;52.266;7.000;2023-09-30T13:14:37;21.80;97.00
47616;DHT22;69146;52.266;7.000;2023-09-30T13:17:24;22.30;96.80
47616;DHT22;69146;52.266;7.000;2023-09-30T13:20:09;22.70;95.20
47616;DHT22;69146;52.266;7.000;2023-09-30T13:22:55;23.00;95.70
47616;DHT22;69146;52.266;7.000;2023-09-30T13:25:41;23.40;94.80
47616;DHT22;69146;52.266;7.000;2023-09-30T13:28:26;23.80;94.60
47616;DHT22;69146;52.266;7.000;2023-09-30T13:31:12;24.10;93.70
47616;DHT22;69146;52.266;7.000;2023-09-30T13:33:57;23.90;94.40
47616;DHT22;69146;52.266;7.000;2023-09-30T13:36:42;23.20;94.60
47616;DHT22;69146;52.266;7.000;2023-09-30T13:39:26;22.80;95.60
47616;DHT22;69146;52.266;7.000;2023-09-30T13:42:11;22.60;96.00
47616;DHT22;69146;52.266;7.000;2023-09-30T13:44:56;22.30;95.70
47616;DHT22;69146;52.266;7.000;2023-09-30T13:47:44;22.10;95.80
47616;DHT22;69146;52.266;7.000;2023-09-30T13:50:30;21.90;96.30
47616;DHT22;69146;52.266;7.000;2023-09-30T13:53:14;21.60;96.40
47616;DHT22;69146;52.266;7.000;2023-09-30T13:55:59;21.40;96.30
47616;DHT22;69146;52.266;7.000;2023-09-30T13:58:44;21.10;96.80
47616;DHT22;69146;52.266;7.000;2023-09-30T14:01:28;20.90;97.60
47616;DHT22;69146;52.266;7.000;2023-09-30T14:04:12;20.80;97.50
47616;DHT22;69146;52.266;7.000;2023-09-30T14:06:58;20.60;97.10
47616;DHT22;69146;52.266;7.000;2023-09-30T14:09:44;20.50;97.40
47616;DHT22;69146;52.266;7.000;2023-09-30T14:12:29;20.40;97.10
47616;DHT22;69146;52.266;7.000;2023-09-30T14:15:13;20.40;97.50
47616;DHT22;69146;52.266;7.000;2023-09-30T14:17:58;20.30;97.20
47616;DHT22;69146;52.266;7.000;2023-09-30T14:20:43;20.20;97.10
47616;DHT22;69146;52.266;7.000;2023-09-30T14:23:28;20.20;97.40
47616;DHT22;69146;52.266;7.000;2023-09-30T14:26:13;20.20;97.70
47616;DHT22;69146;52.266;7.000;2023-09-30T14:28:57;20.10;97.50
47616;DHT22;69146;52.266;7.000;2023-09-30T14:31:42;20.10;98.20
47616;DHT22;69146;52.266;7.000;2023-09-30T14:34:26;20.20;98.60
47616;DHT22;69146;52.266;7.000;2023-09-30T14:37:11;20.20;98.40
47616;DHT22;69146;52.266;7.000;2023-09-30T14:39:57;20.10;97.90
47616;DHT22;69146;52.266;7.000;2023-09-30T14:42:41;20.10;98.40
47616;DHT22;69146;52.266;7.000;2023-09-30T14:45:26;20.00;98.30
47616;DHT22;69146;52.266;7.000;2023-09-30T14:48:10;20.00;98.60
47616;DHT22;69146;52.266;7.000;2023-09-30T14:50:55;19.90;98.40
47616;DHT22;69146;52.266;7.000;2023-09-30T14:53:40;19.80;98.60
47616;DHT22;69146;52.266;7.000;2023-09-30T14:56:25;19.80;98.70
47616;DHT22;69146;52.266;7.000;2023-09-30T14:59:10;19.80;98.60
47616;DHT22;69146;52.266;7.000;2023-09-30T15:01:55;19.80;99.10
47616;DHT22;69146;52.266;7.000;2023-09-30T15:04:39;19.80;99.30
47616;DHT22;69146;52.266;7.000;2023-09-30T15:07:24;19.90;99.10
47616;DHT22;69146;52.266;7.000;2023-09-30T15:10:09;20.00;98.90
47616;DHT22;69146;52.266;7.000;2023-09-30T15:12:55;19.90;99.00
47616;DHT22;69146;52.266;7.000;2023-09-30T15:15:39;19.90;99.10
47616;DHT22;69146;52.266;7.000;2023-09-30T15:18:24;19.80;99.20
47616;DHT22;69146;52.266;7.000;2023-09-30T15:21:08;19.90;98.80
47616;DHT22;69146;52.266;7.000;2023-09-30T15:23:53;19.80;99.10
47616;DHT22;69146;52.266;7.000;2023-09-30T15:26:38;19.90;99.20
47616;DHT22;69146;52.266;7.000;2023-09-30T15:29:24;19.90;99.10
47616;DHT22;69146;52.266;7.000;2023-09-30T15:32:08;20.00;99.00
47616;DHT22;69146;52.266;7.000;2023-09-30T15:34:52;19.90;99.40
47616;DHT22;69146;52.266;7.000;2023-09-30T15:37:37;19.80;99.60
47616;DHT22;69146;52.266;7.000;2023-09-30T15:40:21;19.80;99.10
47616;DHT22;69146;52.266;7.000;2023-09-30T15:43:06;19.80;99.20
47616;DHT22;69146;52.266;7.000;2023-09-30T15:45:51;19.80;99.30
47616;DHT22;69146;52.266;7.000;2023-09-30T15:48:37;19.70;99.20
47616;DHT22;69146;52.266;7.000;2023-09-30T15:51:22;19.60;99.30
47616;DHT22;69146;52.266;7.000;2023-09-30T15:54:09;19.50;99.10
47616;DHT22;69146;52.266;7.000;2023-09-30T15:56:54;19.40;99.40
47616;DHT22;69146;52.266;7.000;2023-09-30T15:59:38;19.30;99.40
47616;DHT22;69146;52.266;7.000;2023-09-30T16:02:25;19.20;99.90
47616;DHT22;69146;52.266;7.000;2023-09-30T16:05:12;19.10;99.90
47616;DHT22;69146;52.266;7.000;2023-09-30T16:07:56;19.00;99.90
47616;DHT22;69146;52.266;7.000;2023-09-30T16:10:41;19.00;99.90
47616;DHT22;69146;52.266;7.000;2023-09-30T16:13:27;18.80;99.90
47616;DHT22;69146;52.266;7.000;2023-09-30T16:16:12;18.80;99.90
47616;DHT22;69146;52.266;7.000;2023-09-30T16:18:58;18.80;99.90
47616;DHT22;69146;52.266;7.000;2023-09-30T16:21:42;18.70;99.90
47616;DHT22;69146;52.266;7.000;2023-09-30T16:24:26;18.70;99.90
47616;DHT22;69146;52.266;7.000;2023-09-30T16:27:11;18.60;99.90
47616;DHT22;69146;52.266;7.000;2023-09-30T16:29:55;18.50;99.90
47616;DHT22;69146;52.266;7.000;2023-09-30T16:32:39;18.50;99.90
47616;DHT22;69146;52.266;7.000;2023-09-30T16:35:25;18.60;99.90
47616;DHT22;69146;52.266;7.000;2023-09-30T16:38:10;18.60;99.90
47616;DHT22;69146;52.266;7.000;2023-09-30T16:40:54;18.60;99.90
47616;DHT22;69146;52.266;7.000;2023-09-30T16:43:40;18.60;99.90
47616;DHT22;69146;52.266;7.000;2023-09-30T16:46:24;18.60;99.90
47616;DHT22;69146;52.266;7.000;2023-09-30T16:49:09;18.60;99.90
47616;DHT22;69146;52.266;7.000;2023-09-30T16:51:55;18.50;99.90
47616;DHT22;69146;52.266;7.000;2023-09-30T16:54:39;18.40;99.90
47616;DHT22;69146;52.266;7.000;2023-09-30T16:57:23;18.30;99.90
47616;DHT22;69146;52.266;7.000;2023-09-30T17:00:09;18.20;99.90
47616;DHT22;69146;52.266;7.000;2023-09-30T17:02:55;18.20;99.90
47616;DHT22;69146;52.266;7.000;2023-09-30T17:05:39;18.10;99.90
47616;DHT22;69146;52.266;7.000;2023-09-30T17:08:27;18.10;99.90
47616;DHT22;69146;52.266;7.000;2023-09-30T17:11:11;18.00;99.90
47616;DHT22;69146;52.266;7.000;2023-09-30T17:14:01;18.00;99.90
47616;DHT22;69146;52.266;7.000;2023-09-30T17:16:46;17.90;99.90
47616;DHT22;69146;52.266;7.000;2023-09-30T17:19:30;17.90;99.90
47616;DHT22;69146;52.266;7.000;2023-09-30T17:22:15;17.90;99.90
47616;DHT22;69146;52.266;7.000;2023-09-30T17:25:03;17.90;99.90
47616;DHT22;69146;52.266;7.000;2023-09-30T17:27:48;17.80;99.90
47616;DHT22;69146;52.266;7.000;2023-09-30T17:30:33;17.80;99.90
47616;DHT22;69146;52.266;7.000;2023-09-30T17:33:18;17.80;99.90
47616;DHT22;69146;52.266;7.000;2023-09-30T17:36:03;17.70;99.90